Time;durP1;ratioP1;P1;durP2;ratioP2;P2;SDS_P1;SDS_P2;PMS_P1;PMS_P2;Temp;Humidity;BMP_temperature;BMP_pressure;BME280_temperature;BME280_humidity;BME280_pressure;Samples;Min_cycle;Max_cycle;Signal;HPM_P1;HPM_P2
2022/12/08 00:00:22;;;;;;;7.78;6.97;;;5.00;99.90;;;;;;5099797;28;20250;-77
2022/12/08 00:02:49;;;;;;;9.10;7.93;;;5.00;99.90;;;;;;5111577;28;20640;-78
2022/12/08 00:10:47;;;;;;;7.75;5.70;;;5.00;99.90;;;;;;5105995;28;20555;-76
2022/12/08 00:13:14;;;;;;;8.95;5.78;;;5.00;99.90;;;;;;5101755;28;20256;-77
2022/12/08 00:15:41;;;;;;;6.35;5.47;;;5.00;99.90;;;;;;5113848;28;20729;-77
2022/12/08 00:18:09;;;;;;;6.72;5.93;;;4.90;99.90;;;;;;5100239;28;20268;-78
2022/12/08 00:20:36;;;;;;;7.60;6.28;;;4.90;99.90;;;;;;5114061;28;20700;-78
2022/12/08 00:23:04;;;;;;;8.30;6.10;;;4.90;99.90;;;;;;5100368;28;20226;-79
2022/12/08 00:25:31;;;;;;;6.40;5.28;;;4.90;99.90;;;;;;5113971;28;20226;-78
2022/12/08 00:28:00;;;;;;;8.48;5.88;;;4.90;99.90;;;;;;5111371;28;20632;-78
2022/12/08 00:30:27;;;;;;;10.20;7.00;;;5.00;99.90;;;;;;5113937;28;20245;-79
2022/12/08 00:32:54;;;;;;;6.70;6.00;;;5.00;99.90;;;;;;5099577;28;20359;-79
2022/12/08 00:35:21;;;;;;;12.95;5.72;;;4.90;99.90;;;;;;5105301;28;20226;-77
2022/12/08 00:37:48;;;;;;;9.43;6.15;;;5.00;99.90;;;;;;5107923;28;20306;-78
2022/12/08 00:40:18;;;;;;;5.75;5.25;;;5.00;99.90;;;;;;5105104;28;20226;-79
2022/12/08 00:42:44;;;;;;;8.60;6.45;;;5.00;99.90;;;;;;5107874;28;20227;-78
2022/12/08 00:45:13;;;;;;;8.05;5.93;;;5.10;99.90;;;;;;5106866;28;20294;-77
2022/12/08 00:47:40;;;;;;;9.57;6.88;;;5.00;99.90;;;;;;5090431;28;20287;-78
2022/12/08 00:50:08;;;;;;;9.23;6.20;;;4.90;99.90;;;;;;5114312;28;20222;-79
2022/12/08 00:52:35;;;;;;;6.72;6.03;;;4.90;99.90;;;;;;5098208;28;20242;-79
2022/12/08 00:55:02;;;;;;;10.98;6.35;;;4.90;99.90;;;;;;5095344;28;20290;-78
2022/12/08 00:57:29;;;;;;;11.18;5.95;;;4.90;99.90;;;;;;5087073;28;20242;-78
2022/12/08 00:59:56;;;;;;;8.95;6.47;;;5.00;99.90;;;;;;5113012;28;20227;-79
2022/12/08 01:02:24;;;;;;;9.63;7.70;;;5.00;99.90;;;;;;5099270;28;20301;-78
2022/12/08 01:04:51;;;;;;;8.23;7.22;;;5.00;99.90;;;;;;5102413;28;20722;-77
2022/12/08 01:07:21;;;;;;;9.35;6.63;;;4.90;99.90;;;;;;5105880;28;20219;-77
2022/12/08 01:09:51;;;;;;;9.73;6.70;;;4.90;99.90;;;;;;5103218;28;20313;-76
2022/12/08 01:12:18;;;;;;;7.07;6.38;;;4.90;99.90;;;;;;5099124;28;20254;-76
2022/12/08 01:14:45;;;;;;;10.98;8.10;;;4.90;99.90;;;;;;5112921;28;20222;-78
2022/12/08 01:17:12;;;;;;;12.85;10.32;;;4.90;99.90;;;;;;5099343;28;20223;-77
2022/12/08 01:19:49;;;;;;;10.00;8.73;;;4.90;99.90;;;;;;5112138;28;20230;-79
2022/12/08 01:22:16;;;;;;;8.50;6.90;;;5.00;99.90;;;;;;5098949;28;20226;-79
2022/12/08 01:24:43;;;;;;;9.77;7.93;;;5.00;99.90;;;;;;5112968;28;20362;-79
2022/12/08 01:27:10;;;;;;;10.55;7.57;;;5.00;99.90;;;;;;5098703;28;20223;-78
2022/12/08 01:29:37;;;;;;;10.30;7.80;;;5.10;99.90;;;;;;5101759;28;20271;-78
2022/12/08 01:32:05;;;;;;;8.45;6.60;;;5.10;99.90;;;;;;5111996;28;20219;-78
2022/12/08 01:34:32;;;;;;;12.27;8.43;;;5.10;99.90;;;;;;5100581;28;20218;-78
2022/12/08 01:37:01;;;;;;;8.77;7.22;;;5.00;99.90;;;;;;5114089;28;20264;-77
2022/12/08 01:39:28;;;;;;;9.23;7.20;;;5.10;99.90;;;;;;5106821;28;20247;-79
2022/12/08 01:41:58;;;;;;;7.32;5.95;;;5.10;99.90;;;;;;5113722;28;20249;-76
2022/12/08 01:44:52;;;;;;;12.68;8.40;;;5.10;99.90;;;;;;5106958;28;20289;-77
2022/12/08 01:47:20;;;;;;;10.23;7.57;;;5.00;99.90;;;;;;5104185;28;20591;-77
2022/12/08 01:49:48;;;;;;;10.45;7.68;;;5.00;99.90;;;;;;5098829;28;20246;-77
2022/12/08 01:52:23;;;;;;;10.40;7.38;;;5.00;99.90;;;;;;5108395;28;20224;-77
2022/12/08 01:54:55;;;;;;;11.60;7.32;;;5.00;99.90;;;;;;5109940;28;20241;-78
2022/12/08 01:57:26;;;;;;;11.20;8.25;;;5.00;99.90;;;;;;5107244;28;20222;-78
2022/12/08 02:00:01;;;;;;;8.25;7.45;;;5.00;99.90;;;;;;5111783;28;20255;-78
2022/12/08 02:02:33;;;;;;;10.63;7.40;;;5.00;99.90;;;;;;5107939;28;20230;-77
2022/12/08 02:05:00;;;;;;;10.52;7.38;;;5.00;99.90;;;;;;5102357;28;20643;-79
2022/12/08 02:07:30;;;;;;;10.32;7.40;;;5.00;99.90;;;;;;5102795;28;20251;-78
2022/12/08 02:09:58;;;;;;;12.48;7.28;;;5.00;99.90;;;;;;5116000;28;20250;-78
2022/12/08 02:12:25;;;;;;;11.88;7.65;;;5.00;99.90;;;;;;5102549;28;20681;-78
2022/12/08 02:14:52;;;;;;;11.90;7.80;;;5.00;99.90;;;;;;5108616;28;20265;-78
2022/12/08 02:17:35;;;;;;;10.55;8.05;;;5.00;99.90;;;;;;5109564;28;20725;-78
2022/12/08 02:20:30;;;;;;;10.65;8.13;;;5.00;99.90;;;;;;5106296;28;20219;-78
2022/12/08 02:23:08;;;;;;;11.27;8.02;;;5.00;99.90;;;;;;5110892;28;20264;-79
2022/12/08 02:25:44;;;;;;;11.25;7.70;;;4.90;99.90;;;;;;5111257;28;20222;-76
2022/12/08 02:28:36;;;;;;;8.02;7.10;;;5.00;99.90;;;;;;5109740;28;20637;-78
2022/12/08 02:31:16;;;;;;;9.65;7.30;;;5.00;99.90;;;;;;5112086;28;20564;-78
2022/12/08 02:34:09;;;;;;;9.52;8.32;;;4.90;99.90;;;;;;5110038;28;20214;-76
2022/12/08 02:36:49;;;;;;;8.55;7.35;;;4.90;99.90;;;;;;5116297;28;20563;-78
2022/12/08 02:39:27;;;;;;;11.38;7.60;;;4.90;99.90;;;;;;5102798;28;20291;-76
2022/12/08 02:42:00;;;;;;;11.32;6.80;;;4.90;99.90;;;;;;5101108;28;20620;-77
2022/12/08 02:44:31;;;;;;;8.68;6.80;;;4.80;99.90;;;;;;5104265;28;20282;-77
2022/12/08 02:47:03;;;;;;;9.10;6.72;;;4.80;99.90;;;;;;5112525;28;20214;-79
2022/12/08 02:49:39;;;;;;;8.32;6.70;;;4.80;99.90;;;;;;5102927;28;20573;-78
2022/12/08 02:52:08;;;;;;;6.57;5.43;;;4.80;99.90;;;;;;5108828;28;20215;-78
2022/12/08 02:54:38;;;;;;;6.43;5.07;;;4.70;99.90;;;;;;5109443;28;20598;-77
2022/12/08 02:57:31;;;;;;;6.72;6.03;;;4.80;99.90;;;;;;5107793;28;20216;-77
2022/12/08 03:00:06;;;;;;;5.97;5.35;;;4.80;99.90;;;;;;5112201;28;20227;-78
2022/12/08 03:03:07;;;;;;;6.88;5.95;;;4.80;99.90;;;;;;5107142;28;20247;-78
2022/12/08 03:05:54;;;;;;;8.52;5.82;;;4.80;99.90;;;;;;5105113;28;20229;-77
2022/12/08 03:08:32;;;;;;;6.50;5.60;;;4.80;99.90;;;;;;5101283;28;20283;-76
2022/12/08 03:11:04;;;;;;;7.30;6.60;;;4.80;99.90;;;;;;5115331;28;20612;-77
2022/12/08 03:13:38;;;;;;;6.30;5.65;;;4.80;99.90;;;;;;5114519;28;20218;-76
2022/12/08 03:16:09;;;;;;;8.85;6.20;;;4.90;99.90;;;;;;5103392;28;20554;-76
2022/12/08 03:18:41;;;;;;;7.40;6.03;;;4.90;99.90;;;;;;5112609;28;20301;-79
2022/12/08 03:21:10;;;;;;;5.57;5.05;;;4.90;99.90;;;;;;5104248;28;20648;-79
2022/12/08 03:23:39;;;;;;;6.00;5.40;;;4.90;99.90;;;;;;5101365;28;20318;-77
2022/12/08 03:26:12;;;;;;;6.90;5.85;;;4.90;99.90;;;;;;5103739;28;20243;-77
2022/12/08 03:28:39;;;;;;;15.40;10.13;;;4.90;99.90;;;;;;5106945;28;20224;-77
2022/12/08 03:31:10;;;;;;;5.90;5.30;;;4.90;99.90;;;;;;5111402;28;20230;-76
2022/12/08 03:33:44;;;;;;;9.32;6.82;;;4.80;99.90;;;;;;5099696;28;20225;-77
2022/12/08 03:36:14;;;;;;;6.13;5.43;;;4.80;99.90;;;;;;5114627;28;20233;-77
2022/12/08 03:38:44;;;;;;;6.93;5.60;;;4.90;99.90;;;;;;5106834;28;20223;-78
2022/12/08 03:41:21;;;;;;;5.28;4.78;;;4.90;99.90;;;;;;5106668;28;20314;-77
2022/12/08 03:43:50;;;;;;;5.25;4.75;;;4.90;99.90;;;;;;5101891;28;20740;-77
2022/12/08 03:46:18;;;;;;;5.40;4.90;;;4.80;99.90;;;;;;5114386;28;20301;-78
2022/12/08 03:48:45;;;;;;;5.50;4.65;;;4.80;99.90;;;;;;5092121;28;20241;-77
2022/12/08 03:51:14;;;;;;;7.05;6.28;;;4.80;99.90;;;;;;5108315;28;20215;-77
2022/12/08 03:53:42;;;;;;;6.13;5.13;;;4.80;99.90;;;;;;5113328;28;20219;-77
2022/12/08 03:56:16;;;;;;;7.55;5.68;;;4.80;99.90;;;;;;5114400;28;20225;-77
2022/12/08 03:58:45;;;;;;;6.47;5.88;;;4.80;99.90;;;;;;5114304;28;20287;-77
2022/12/08 04:01:16;;;;;;;7.03;6.20;;;4.80;99.90;;;;;;5114163;28;20257;-76
2022/12/08 04:03:43;;;;;;;7.18;6.47;;;4.80;99.90;;;;;;5113466;28;20656;-77
2022/12/08 04:06:10;;;;;;;7.82;6.22;;;4.80;99.90;;;;;;5113473;28;20580;-77
2022/12/08 04:08:39;;;;;;;6.30;5.70;;;4.80;99.90;;;;;;5112372;28;20244;-77
2022/12/08 04:11:07;;;;;;;6.68;5.68;;;4.80;99.90;;;;;;5114072;28;20226;-77
2022/12/08 04:13:34;;;;;;;8.02;7.15;;;4.80;99.90;;;;;;5113960;28;20215;-78
2022/12/08 04:16:02;;;;;;;9.25;7.63;;;4.80;99.90;;;;;;5113778;28;20226;-78
2022/12/08 04:18:29;;;;;;;7.88;6.75;;;4.80;99.90;;;;;;5115401;28;20257;-78
2022/12/08 04:20:56;;;;;;;8.30;7.13;;;4.90;99.90;;;;;;5117551;28;20246;-77
2022/12/08 04:23:23;;;;;;;8.70;7.38;;;4.90;99.90;;;;;;5131378;28;20237;-79
2022/12/08 04:25:53;;;;;;;7.03;6.32;;;4.90;99.90;;;;;;5131779;28;20249;-79
2022/12/08 04:28:21;;;;;;;6.88;6.28;;;4.90;99.90;;;;;;5131290;28;20233;-79
2022/12/08 04:30:49;;;;;;;8.13;6.80;;;4.90;99.90;;;;;;5130330;28;20246;-77
2022/12/08 04:33:17;;;;;;;8.00;7.00;;;4.90;99.90;;;;;;5130845;28;20222;-79
2022/12/08 04:35:44;;;;;;;9.35;7.40;;;4.90;99.90;;;;;;5130090;28;20230;-79
2022/12/08 04:38:11;;;;;;;13.40;7.28;;;4.90;99.90;;;;;;5130854;28;20287;-78
2022/12/08 04:40:38;;;;;;;9.45;7.45;;;5.00;99.90;;;;;;5117339;28;20269;-77
2022/12/08 04:43:09;;;;;;;11.23;6.65;;;4.90;99.90;;;;;;5115648;28;20579;-79
2022/12/08 04:45:39;;;;;;;8.52;7.20;;;4.90;99.90;;;;;;5086568;28;20227;-77
2022/12/08 04:48:07;;;;;;;6.60;5.75;;;5.00;99.90;;;;;;5114377;28;20214;-76
2022/12/08 04:50:34;;;;;;;10.02;7.88;;;4.90;99.90;;;;;;5114029;28;20242;-76
2022/12/08 04:53:01;;;;;;;8.70;7.80;;;4.90;99.90;;;;;;5114116;28;20559;-76
2022/12/08 04:55:28;;;;;;;10.65;7.15;;;4.90;99.90;;;;;;5116787;28;20222;-79
2022/12/08 04:57:55;;;;;;;9.25;8.35;;;4.90;99.90;;;;;;5114184;28;20261;-76
2022/12/08 05:00:24;;;;;;;9.45;8.07;;;4.80;99.90;;;;;;5114816;28;20238;-77
2022/12/08 05:02:51;;;;;;;9.73;8.77;;;4.80;99.90;;;;;;5114619;28;20302;-78
2022/12/08 05:05:18;;;;;;;8.20;7.38;;;4.80;99.90;;;;;;5114372;28;20249;-79
2022/12/08 05:07:45;;;;;;;9.60;7.85;;;4.80;99.90;;;;;;5114315;28;20356;-77
2022/12/08 05:10:15;;;;;;;10.10;9.10;;;4.90;99.90;;;;;;5115143;28;20233;-76
2022/12/08 05:12:42;;;;;;;9.68;7.97;;;5.00;99.90;;;;;;5113305;28;20219;-77
2022/12/08 05:15:10;;;;;;;9.27;8.30;;;4.90;99.90;;;;;;5116895;28;20240;-79
2022/12/08 05:17:38;;;;;;;10.43;8.55;;;5.00;99.90;;;;;;5121812;28;20222;-78
2022/12/08 05:20:06;;;;;;;9.50;8.60;;;5.00;99.90;;;;;;5120569;28;20231;-79
2022/12/08 05:22:33;;;;;;;8.75;7.70;;;5.00;99.90;;;;;;5122002;28;20237;-78
2022/12/08 05:25:00;;;;;;;9.43;8.30;;;4.90;99.90;;;;;;5119422;28;20248;-76
2022/12/08 05:27:30;;;;;;;12.07;9.40;;;4.90;99.90;;;;;;5125844;28;20219;-79
2022/12/08 05:29:57;;;;;;;13.02;9.35;;;5.00;99.90;;;;;;5127805;28;20226;-78
2022/12/08 05:32:24;;;;;;;10.50;9.30;;;5.00;99.90;;;;;;5128059;28;20274;-76
2022/12/08 05:34:53;;;;;;;15.00;12.13;;;5.00;99.90;;;;;;5126800;28;20222;-78
2022/12/08 05:37:20;;;;;;;15.32;11.25;;;5.00;99.90;;;;;;5127152;28;20276;-78
2022/12/08 05:39:47;;;;;;;13.77;10.40;;;5.00;99.90;;;;;;5129902;28;20226;-78
2022/12/08 05:42:14;;;;;;;10.52;9.25;;;5.10;99.90;;;;;;5126343;28;20219;-76
2022/12/08 05:44:41;;;;;;;10.63;9.50;;;5.10;99.90;;;;;;5125374;28;20357;-79
2022/12/08 05:47:09;;;;;;;14.77;10.50;;;5.10;99.90;;;;;;5131196;28;20218;-78
2022/12/08 05:49:36;;;;;;;11.00;9.43;;;5.10;99.90;;;;;;5133025;28;20294;-78
2022/12/08 05:52:05;;;;;;;11.30;9.98;;;5.10;99.90;;;;;;5133096;28;20325;-78
2022/12/08 05:54:32;;;;;;;12.00;10.75;;;5.10;99.90;;;;;;5129482;28;20225;-77
2022/12/08 05:57:00;;;;;;;12.93;9.93;;;5.10;99.90;;;;;;5116526;28;20340;-77
2022/12/08 05:59:27;;;;;;;14.43;10.65;;;5.10;99.90;;;;;;5115155;28;20660;-76
2022/12/08 06:01:54;;;;;;;15.48;10.80;;;5.10;99.90;;;;;;5113960;28;20350;-77
2022/12/08 06:04:22;;;;;;;13.20;10.52;;;5.10;99.90;;;;;;5113528;28;20300;-77
2022/12/08 06:06:52;;;;;;;13.95;10.23;;;5.10;99.90;;;;;;5113752;28;20301;-77
2022/12/08 06:09:20;;;;;;;13.30;10.43;;;5.20;99.90;;;;;;5113010;28;20237;-76
2022/12/08 06:11:48;;;;;;;11.43;10.18;;;5.20;99.90;;;;;;5113443;28;20223;-77
2022/12/08 06:14:14;;;;;;;13.95;11.07;;;5.10;99.90;;;;;;5114651;28;20222;-79
2022/12/08 06:16:42;;;;;;;13.27;10.95;;;5.10;99.90;;;;;;5117376;28;20222;-79
2022/12/08 06:19:08;;;;;;;11.35;9.75;;;5.20;99.90;;;;;;5116667;28;20227;-79
2022/12/08 06:21:35;;;;;;;12.85;11.55;;;5.20;99.90;;;;;;5117103;28;20227;-79
2022/12/08 06:24:04;;;;;;;15.60;12.27;;;5.30;99.90;;;;;;5117544;28;20286;-79
2022/12/08 06:26:34;;;;;;;14.63;10.82;;;5.30;99.90;;;;;;5117341;28;20280;-78
2022/12/08 06:29:03;;;;;;;23.30;15.50;;;5.30;99.90;;;;;;5118941;28;20225;-79
2022/12/08 06:31:30;;;;;;;20.70;17.10;;;5.30;99.90;;;;;;5119328;28;20558;-79
2022/12/08 06:33:57;;;;;;;18.20;15.85;;;5.40;99.90;;;;;;5117011;28;20226;-79
2022/12/08 06:36:26;;;;;;;15.23;13.23;;;5.40;99.90;;;;;;5118772;28;20648;-79
2022/12/08 06:38:53;;;;;;;15.48;12.07;;;5.40;99.90;;;;;;5118005;28;20250;-78
2022/12/08 06:41:20;;;;;;;17.88;11.50;;;5.50;99.90;;;;;;5117362;28;20288;-79
2022/12/08 06:43:49;;;;;;;15.68;11.98;;;5.50;99.90;;;;;;5115521;28;20595;-78
2022/12/08 06:46:18;;;;;;;17.88;13.48;;;5.50;99.90;;;;;;5107203;28;20703;-78
2022/12/08 06:48:45;;;;;;;14.75;11.98;;;5.40;99.90;;;;;;5115749;28;20218;-76
2022/12/08 06:51:15;;;;;;;15.93;11.70;;;5.50;99.90;;;;;;5115273;28;20301;-78
2022/12/08 06:53:43;;;;;;;14.40;10.38;;;5.40;99.90;;;;;;5116837;28;20325;-79
2022/12/08 06:56:12;;;;;;;13.23;10.75;;;5.40;99.90;;;;;;5116157;28;20742;-79
2022/12/08 06:58:44;;;;;;;12.63;11.35;;;5.50;99.90;;;;;;5116342;28;20698;-78
2022/12/08 07:01:13;;;;;;;12.05;10.02;;;5.50;99.90;;;;;;5115836;28;20268;-79
2022/12/08 07:03:43;;;;;;;16.42;10.88;;;5.50;99.90;;;;;;5116691;28;20218;-79
2022/12/08 07:06:15;;;;;;;12.77;10.68;;;5.50;99.90;;;;;;5113906;28;20223;-77
2022/12/08 07:08:42;;;;;;;12.70;9.90;;;5.50;99.90;;;;;;5113354;28;20703;-76
2022/12/08 07:11:12;;;;;;;15.43;11.27;;;5.50;99.90;;;;;;5114804;28;20234;-77
2022/12/08 07:13:39;;;;;;;15.57;12.65;;;5.50;99.90;;;;;;5115348;28;20257;-76
2022/12/08 07:16:09;;;;;;;17.30;11.57;;;5.50;99.90;;;;;;5114689;28;20294;-77
2022/12/08 07:18:38;;;;;;;14.98;11.90;;;5.50;99.90;;;;;;5114730;28;20301;-77
2022/12/08 07:21:08;;;;;;;14.27;11.10;;;5.60;99.90;;;;;;5114455;28;20622;-78
2022/12/08 07:23:35;;;;;;;15.70;10.93;;;5.60;99.90;;;;;;5115289;28;20660;-77
2022/12/08 07:26:03;;;;;;;14.60;10.80;;;5.60;99.90;;;;;;5114182;28;20246;-76
2022/12/08 07:28:36;;;;;;;11.38;10.02;;;5.60;99.90;;;;;;5100934;28;20687;-77
2022/12/08 07:31:11;;;;;;;13.05;11.52;;;5.60;99.90;;;;;;5101948;28;20531;-77
2022/12/08 07:33:41;;;;;;;13.35;10.18;;;5.60;99.90;;;;;;5104484;28;20279;-77
2022/12/08 07:36:12;;;;;;;14.70;10.50;;;5.70;99.90;;;;;;5114551;28;20219;-76
2022/12/08 07:38:42;;;;;;;12.25;10.85;;;5.70;99.90;;;;;;5114987;28;20249;-80
2022/12/08 07:41:18;;;;;;;14.30;11.18;;;5.60;99.90;;;;;;5115234;28;20226;-79
2022/12/08 07:43:45;;;;;;;12.60;11.25;;;5.60;99.90;;;;;;5114971;28;20525;-79
2022/12/08 07:46:13;;;;;;;16.10;11.68;;;5.60;99.90;;;;;;5115398;28;20264;-79
2022/12/08 07:48:59;;;;;;;15.40;12.45;;;5.60;99.90;;;;;;5113912;28;20247;-78
2022/12/08 07:51:31;;;;;;;23.45;15.70;;;5.70;99.90;;;;;;5113717;28;20233;-77
2022/12/08 07:53:58;;;;;;;23.83;16.60;;;5.70;99.90;;;;;;5114307;28;20249;-78
2022/12/08 07:56:25;;;;;;;17.92;13.77;;;5.60;99.90;;;;;;5113970;28;20242;-77
2022/12/08 07:58:53;;;;;;;21.00;14.38;;;5.60;99.90;;;;;;5113719;28;20298;-80
2022/12/08 08:01:26;;;;;;;17.23;13.00;;;5.70;99.90;;;;;;5115399;28;20599;-79
2022/12/08 08:03:56;;;;;;;15.13;11.20;;;5.70;99.90;;;;;;5114518;28;20640;-79
2022/12/08 08:06:24;;;;;;;13.30;11.63;;;5.70;99.90;;;;;;5114386;28;20305;-80
2022/12/08 08:08:51;;;;;;;16.70;11.68;;;5.70;99.90;;;;;;5113645;28;20678;-80
2022/12/08 08:11:20;;;;;;;14.23;11.25;;;5.80;99.90;;;;;;5114253;28;20215;-80
2022/12/08 08:13:47;;;;;;;12.55;10.38;;;5.80;99.90;;;;;;5114020;28;20237;-80
2022/12/08 08:16:17;;;;;;;18.67;9.80;;;5.80;99.90;;;;;;5113989;28;20330;-80
2022/12/08 08:18:46;;;;;;;14.73;11.15;;;5.80;99.90;;;;;;5113554;28;20223;-80
2022/12/08 08:21:14;;;;;;;13.63;10.48;;;5.70;99.90;;;;;;5114766;28;20223;-80
2022/12/08 08:23:41;;;;;;;15.45;10.05;;;5.80;99.90;;;;;;5114038;28;20228;-80
2022/12/08 08:26:08;;;;;;;13.73;9.88;;;5.70;99.90;;;;;;5114049;28;20223;-80
2022/12/08 08:28:44;;;;;;;11.68;9.00;;;5.80;99.90;;;;;;5113569;28;20230;-80
2022/12/08 08:31:11;;;;;;;13.85;10.90;;;5.80;99.90;;;;;;5114060;28;20226;-79
2022/12/08 08:33:38;;;;;;;12.93;10.65;;;5.80;99.90;;;;;;5113541;28;20226;-80
2022/12/08 08:36:07;;;;;;;11.82;9.35;;;5.80;99.90;;;;;;5114006;28;20242;-79
2022/12/08 08:38:43;;;;;;;15.05;10.57;;;5.80;99.90;;;;;;5112671;28;20306;-79
2022/12/08 08:41:11;;;;;;;13.43;9.40;;;5.80;99.90;;;;;;5113874;28;20252;-79
2022/12/08 08:43:55;;;;;;;17.98;10.48;;;5.80;99.90;;;;;;5113576;28;20586;-80
2022/12/08 08:46:22;;;;;;;12.05;10.63;;;5.80;99.90;;;;;;5113596;28;20321;-79
2022/12/08 08:48:49;;;;;;;23.27;12.18;;;5.80;99.90;;;;;;5112181;28;20317;-80
2022/12/08 08:51:16;;;;;;;15.30;10.40;;;5.80;99.90;;;;;;5114248;28;20231;-79
2022/12/08 08:53:44;;;;;;;11.07;9.68;;;5.80;99.90;;;;;;5101812;28;20252;-79
2022/12/08 08:56:26;;;;;;;14.10;9.80;;;5.80;99.90;;;;;;5113954;28;20219;-79
2022/12/08 08:58:53;;;;;;;13.18;10.52;;;5.90;99.90;;;;;;5114872;28;20283;-78
2022/12/08 09:01:22;;;;;;;15.93;11.93;;;5.90;99.90;;;;;;5112383;28;20313;-78
2022/12/08 09:03:49;;;;;;;20.33;14.43;;;5.90;99.90;;;;;;5113719;28;20236;-79
2022/12/08 09:06:17;;;;;;;19.50;13.95;;;5.90;99.90;;;;;;5113299;28;20283;-79
2022/12/08 09:08:46;;;;;;;15.25;12.63;;;5.90;99.90;;;;;;5113843;28;20222;-79
2022/12/08 09:11:14;;;;;;;18.92;10.18;;;5.90;99.90;;;;;;5113352;28;20223;-79
2022/12/08 09:13:43;;;;;;;11.88;10.18;;;5.90;99.90;;;;;;5114315;28;20214;-80
2022/12/08 09:16:12;;;;;;;15.70;10.02;;;5.80;99.90;;;;;;5112840;28;20240;-80
2022/12/08 09:18:39;;;;;;;14.68;11.25;;;5.90;99.90;;;;;;5113928;28;20219;-79
2022/12/08 09:21:07;;;;;;;12.57;10.90;;;5.90;99.90;;;;;;5113611;28;20223;-76
2022/12/08 09:23:34;;;;;;;12.55;9.95;;;6.00;99.90;;;;;;5113167;28;20591;-77
2022/12/08 09:26:03;;;;;;;12.90;9.90;;;6.00;99.90;;;;;;5113673;28;20279;-78
2022/12/08 09:28:36;;;;;;;14.38;10.88;;;6.00;99.90;;;;;;5113830;28;20215;-77
2022/12/08 09:31:15;;;;;;;13.00;10.95;;;6.00;99.90;;;;;;5113477;28;20688;-77
2022/12/08 09:33:50;;;;;;;11.25;10.13;;;6.10;99.90;;;;;;5116682;28;20290;-79
2022/12/08 09:36:41;;;;;;;13.52;10.93;;;6.10;99.90;;;;;;5113475;28;20217;-78
2022/12/08 09:39:15;;;;;;;13.13;10.77;;;6.20;99.90;;;;;;5114968;28;20226;-79
2022/12/08 09:41:58;;;;;;;15.02;12.05;;;6.20;99.90;;;;;;5116339;28;20219;-79
2022/12/08 09:44:54;;;;;;;12.52;10.57;;;6.30;99.90;;;;;;5116529;28;20227;-79
2022/12/08 09:47:33;;;;;;;12.23;10.05;;;6.30;99.90;;;;;;5114611;28;20306;-83
2022/12/08 09:50:13;;;;;;;14.48;11.90;;;6.30;99.90;;;;;;5118444;28;20676;-81
2022/12/08 09:52:51;;;;;;;13.45;12.05;;;6.30;99.90;;;;;;5117980;28;20252;-79
2022/12/08 09:55:28;;;;;;;13.40;11.25;;;6.40;99.90;;;;;;5118731;28;20298;-80
2022/12/08 09:58:02;;;;;;;14.85;11.10;;;6.40;99.90;;;;;;5118826;28;20225;-81
2022/12/08 10:00:32;;;;;;;14.07;11.13;;;6.40;99.90;;;;;;5116947;28;20295;-78
2022/12/08 10:03:00;;;;;;;13.60;10.63;;;6.40;99.90;;;;;;5117492;28;20240;-78
2022/12/08 10:05:28;;;;;;;15.57;11.55;;;6.40;99.90;;;;;;5096189;28;20223;-78
2022/12/08 10:08:06;;;;;;;13.60;10.30;;;6.40;99.90;;;;;;5109581;28;20219;-78
2022/12/08 10:10:41;;;;;;;16.08;11.48;;;6.40;99.90;;;;;;5111338;28;20222;-77
2022/12/08 10:13:20;;;;;;;15.93;11.45;;;6.40;99.90;;;;;;5113565;28;20214;-77
2022/12/08 10:15:57;;;;;;;12.77;10.73;;;6.40;99.90;;;;;;5116851;28;20226;-76
2022/12/08 10:18:28;;;;;;;14.88;11.73;;;6.30;99.90;;;;;;5116719;28;20222;-77
2022/12/08 10:21:00;;;;;;;14.02;11.75;;;6.30;99.90;;;;;;5116609;28;20244;-80
2022/12/08 10:23:31;;;;;;;17.33;12.05;;;6.30;99.90;;;;;;5116860;28;20588;-80
2022/12/08 10:26:01;;;;;;;17.92;12.20;;;6.30;99.90;;;;;;5117337;28;20804;-79
2022/12/08 10:28:30;;;;;;;15.45;12.15;;;6.30;99.90;;;;;;5116074;28;20252;-81
2022/12/08 10:30:57;;;;;;;15.25;12.02;;;6.30;99.90;;;;;;5113718;28;20222;-81
2022/12/08 10:33:24;;;;;;;12.20;10.57;;;6.30;99.90;;;;;;5100524;28;20219;-79
2022/12/08 10:35:53;;;;;;;15.30;11.13;;;6.30;99.90;;;;;;5110594;28;20689;-81
2022/12/08 10:38:23;;;;;;;17.17;11.30;;;6.40;99.90;;;;;;5116436;28;20565;-77
2022/12/08 10:40:52;;;;;;;12.27;9.77;;;6.40;99.90;;;;;;5095160;28;20227;-80
2022/12/08 10:43:24;;;;;;;17.05;13.20;;;6.40;99.90;;;;;;5096829;28;20239;-77
2022/12/08 10:45:53;;;;;;;18.50;14.45;;;6.40;99.90;;;;;;5109812;28;20242;-77
2022/12/08 10:48:26;;;;;;;12.10;10.48;;;6.40;99.90;;;;;;5116222;28;20219;-77
2022/12/08 10:50:58;;;;;;;12.93;10.27;;;6.40;99.90;;;;;;5116805;28;20284;-80
2022/12/08 10:53:26;;;;;;;11.77;9.27;;;6.40;99.90;;;;;;5101920;28;20223;-80
2022/12/08 10:56:06;;;;;;;11.70;9.55;;;6.40;99.90;;;;;;5096863;28;20306;-80
2022/12/08 10:58:35;;;;;;;10.48;8.95;;;6.40;99.90;;;;;;5096296;28;20251;-80
2022/12/08 11:01:10;;;;;;;13.68;9.70;;;6.50;99.90;;;;;;5094983;28;20245;-80
2022/12/08 11:03:44;;;;;;;10.40;9.30;;;6.50;99.90;;;;;;5096199;28;20257;-79
2022/12/08 11:06:16;;;;;;;12.52;9.98;;;6.50;99.90;;;;;;5096599;28;20526;-78
2022/12/08 11:08:49;;;;;;;10.52;9.07;;;6.50;99.90;;;;;;5095556;28;20219;-77
2022/12/08 11:11:17;;;;;;;13.13;9.88;;;6.50;99.90;;;;;;5101085;28;20268;-77
2022/12/08 11:13:44;;;;;;;13.02;10.70;;;6.50;99.90;;;;;;5115029;28;20226;-77
2022/12/08 11:16:16;;;;;;;11.75;10.55;;;6.50;99.90;;;;;;5115644;28;20238;-77
2022/12/08 11:18:46;;;;;;;13.35;10.55;;;6.60;99.90;;;;;;5110816;28;20618;-77
2022/12/08 11:21:16;;;;;;;10.65;9.52;;;6.60;99.90;;;;;;5095161;28;20215;-77
2022/12/08 11:23:48;;;;;;;9.68;8.70;;;6.60;99.90;;;;;;5094545;28;20280;-78
2022/12/08 11:26:30;;;;;;;9.73;8.80;;;6.70;99.90;;;;;;5095163;28;20242;-77
2022/12/08 11:29:16;;;;;;;10.60;9.45;;;6.70;99.90;;;;;;5092703;28;20223;-78
2022/12/08 11:31:57;;;;;;;8.15;7.35;;;6.70;99.90;;;;;;5093186;28;20284;-77
2022/12/08 11:34:37;;;;;;;9.48;7.95;;;6.70;99.90;;;;;;5093827;28;20227;-77
2022/12/08 11:37:07;;;;;;;11.80;9.48;;;6.80;99.90;;;;;;5093859;28;20291;-77
2022/12/08 11:39:36;;;;;;;10.85;9.75;;;6.70;99.90;;;;;;5094909;28;20257;-79
2022/12/08 11:42:07;;;;;;;8.65;7.85;;;6.80;99.90;;;;;;5094686;28;20219;-79
2022/12/08 11:44:39;;;;;;;10.02;8.55;;;6.80;99.90;;;;;;5095716;28;20227;-80
2022/12/08 11:47:14;;;;;;;9.88;8.88;;;6.80;99.90;;;;;;5095595;28;20311;-79
2022/12/08 11:49:42;;;;;;;10.90;9.40;;;6.80;99.90;;;;;;5096517;28;20227;-80
2022/12/08 11:52:21;;;;;;;11.95;10.18;;;6.80;99.90;;;;;;5099247;28;20220;-80
2022/12/08 11:54:52;;;;;;;11.93;10.73;;;6.80;99.90;;;;;;5085482;28;20242;-80
2022/12/08 11:57:25;;;;;;;10.82;8.88;;;6.80;99.90;;;;;;5095349;28;20302;-78
2022/12/08 11:59:56;;;;;;;11.20;9.63;;;6.80;99.90;;;;;;5098184;28;20262;-78
2022/12/08 12:02:27;;;;;;;13.05;9.77;;;6.80;99.90;;;;;;5101352;28;20227;-81
2022/12/08 12:04:57;;;;;;;12.10;10.02;;;6.80;99.90;;;;;;5106150;28;20561;-80
2022/12/08 12:07:55;;;;;;;13.30;10.65;;;6.80;99.90;;;;;;5109972;28;20231;-81
2022/12/08 12:10:38;;;;;;;9.70;8.70;;;6.80;99.90;;;;;;5110586;28;20275;-79
2022/12/08 12:13:16;;;;;;;11.60;10.00;;;6.80;99.90;;;;;;5107603;28;20225;-78
2022/12/08 12:16:14;;;;;;;16.30;12.27;;;6.80;99.90;;;;;;5110563;28;20235;-81
2022/12/08 12:18:45;;;;;;;12.20;10.90;;;6.80;99.90;;;;;;5061674;28;20229;-80
2022/12/08 12:21:19;;;;;;;11.48;10.27;;;6.80;99.90;;;;;;5113180;28;20219;-81
2022/12/08 12:23:49;;;;;;;15.07;11.02;;;6.70;99.90;;;;;;5110085;28;20227;-80
2022/12/08 12:26:20;;;;;;;11.60;10.30;;;6.70;99.90;;;;;;5100843;28;20231;-81
2022/12/08 12:28:52;;;;;;;12.60;10.30;;;6.80;99.90;;;;;;5083448;28;20231;-81
2022/12/08 12:31:23;;;;;;;11.05;9.85;;;6.80;99.90;;;;;;5096916;28;20216;-81
2022/12/08 12:33:56;;;;;;;12.52;10.40;;;6.80;99.90;;;;;;5095098;28;20219;-81
2022/12/08 12:36:24;;;;;;;12.65;8.93;;;6.80;99.90;;;;;;5094537;28;20303;-81
2022/12/08 12:39:03;;;;;;;12.50;10.48;;;6.80;99.90;;;;;;5093793;28;20284;-81
2022/12/08 12:41:37;;;;;;;11.40;9.98;;;6.90;99.90;;;;;;5094040;28;20227;-81
2022/12/08 12:44:24;;;;;;;13.18;10.40;;;6.90;99.90;;;;;;5093653;28;20229;-81
2022/12/08 12:46:57;;;;;;;9.93;9.00;;;6.80;99.90;;;;;;5089674;28;20289;-80
2022/12/08 12:49:53;;;;;;;11.00;8.90;;;6.80;99.90;;;;;;5094124;28;20257;-81
2022/12/08 12:52:43;;;;;;;9.50;8.50;;;6.80;99.90;;;;;;5062562;28;20270;-81
2022/12/08 12:55:51;;;;;;;9.75;8.63;;;6.80;99.90;;;;;;5096814;28;20253;-81
2022/12/08 12:58:37;;;;;;;10.65;8.35;;;6.80;99.90;;;;;;5086638;28;20246;-81
2022/12/08 13:01:36;;;;;;;12.35;11.05;;;6.80;99.90;;;;;;5109068;28;20592;-81
2022/12/08 13:04:07;;;;;;;13.48;9.57;;;6.80;99.90;;;;;;5113498;28;20283;-80
2022/12/08 13:06:40;;;;;;;12.02;10.48;;;6.80;99.90;;;;;;5113763;28;20233;-81
2022/12/08 13:09:16;;;;;;;12.55;11.25;;;6.90;99.90;;;;;;5113062;28;20456;-81
2022/12/08 13:11:49;;;;;;;15.27;12.57;;;6.90;99.90;;;;;;5103256;28;20240;-81